sensor_id;sensor_type;location;lat;lon;timestamp;P1;durP1;ratioP1;P2;durP2;ratioP2
42988;SDS011;28622;43.716;20.668;2023-04-06T00:01:09;8.95;;;4.53;;
42988;SDS011;28622;43.716;20.668;2023-04-06T00:03:36;6.68;;;4.43;;
42988;SDS011;28622;43.716;20.668;2023-04-06T00:06:02;8.27;;;4.53;;
42988;SDS011;28622;43.716;20.668;2023-04-06T00:08:28;8.90;;;4.32;;
42988;SDS011;28622;43.716;20.668;2023-04-06T00:10:54;10.10;;;4.57;;
42988;SDS011;28622;43.716;20.668;2023-04-06T00:13:20;10.50;;;5.28;;
42988;SDS011;28622;43.716;20.668;2023-04-06T00:15:46;6.50;;;3.90;;
42988;SDS011;28622;43.716;20.668;2023-04-06T00:18:12;9.18;;;5.15;;
42988;SDS011;28622;43.716;20.668;2023-04-06T00:20:38;8.43;;;4.35;;
42988;SDS011;28622;43.716;20.668;2023-04-06T00:23:03;9.27;;;4.65;;
42988;SDS011;28622;43.716;20.668;2023-04-06T00:25:29;15.00;;;5.60;;
42988;SDS011;28622;43.716;20.668;2023-04-06T00:27:55;15.38;;;7.35;;
42988;SDS011;28622;43.716;20.668;2023-04-06T00:30:21;20.45;;;7.88;;
42988;SDS011;28622;43.716;20.668;2023-04-06T00:32:47;18.98;;;9.90;;
42988;SDS011;28622;43.716;20.668;2023-04-06T00:35:12;21.23;;;9.93;;
42988;SDS011;28622;43.716;20.668;2023-04-06T00:37:40;24.35;;;11.35;;
42988;SDS011;28622;43.716;20.668;2023-04-06T00:40:05;16.95;;;7.70;;
42988;SDS011;28622;43.716;20.668;2023-04-06T00:42:32;19.17;;;9.32;;
42988;SDS011;28622;43.716;20.668;2023-04-06T00:44:58;14.65;;;7.15;;
42988;SDS011;28622;43.716;20.668;2023-04-06T00:47:25;19.30;;;8.77;;
42988;SDS011;28622;43.716;20.668;2023-04-06T00:49:52;21.75;;;8.35;;
42988;SDS011;28622;43.716;20.668;2023-04-06T00:52:18;18.50;;;8.48;;
42988;SDS011;28622;43.716;20.668;2023-04-06T00:54:44;10.65;;;6.25;;
42988;SDS011;28622;43.716;20.668;2023-04-06T00:57:13;10.45;;;5.10;;
42988;SDS011;28622;43.716;20.668;2023-04-06T00:59:40;11.02;;;6.00;;
42988;SDS011;28622;43.716;20.668;2023-04-06T01:02:06;8.35;;;4.13;;
42988;SDS011;28622;43.716;20.668;2023-04-06T01:04:33;10.98;;;4.93;;
42988;SDS011;28622;43.716;20.668;2023-04-06T01:06:59;7.03;;;4.25;;
42988;SDS011;28622;43.716;20.668;2023-04-06T01:09:27;8.48;;;4.32;;
42988;SDS011;28622;43.716;20.668;2023-04-06T01:11:55;7.18;;;4.05;;
42988;SDS011;28622;43.716;20.668;2023-04-06T01:14:21;11.35;;;4.07;;
42988;SDS011;28622;43.716;20.668;2023-04-06T01:16:48;7.93;;;3.75;;
42988;SDS011;28622;43.716;20.668;2023-04-06T01:19:13;7.32;;;4.10;;
42988;SDS011;28622;43.716;20.668;2023-04-06T01:21:40;8.27;;;4.15;;
42988;SDS011;28622;43.716;20.668;2023-04-06T01:24:06;9.10;;;4.75;;
42988;SDS011;28622;43.716;20.668;2023-04-06T01:26:33;9.93;;;4.43;;
42988;SDS011;28622;43.716;20.668;2023-04-06T01:28:59;10.02;;;5.05;;
42988;SDS011;28622;43.716;20.668;2023-04-06T01:31:26;6.88;;;4.38;;
42988;SDS011;28622;43.716;20.668;2023-04-06T01:33:52;10.35;;;4.50;;
42988;SDS011;28622;43.716;20.668;2023-04-06T01:36:18;9.77;;;4.65;;
42988;SDS011;28622;43.716;20.668;2023-04-06T01:38:45;10.68;;;5.22;;
42988;SDS011;28622;43.716;20.668;2023-04-06T01:41:10;17.48;;;7.82;;
42988;SDS011;28622;43.716;20.668;2023-04-06T01:43:36;18.83;;;6.40;;
42988;SDS011;28622;43.716;20.668;2023-04-06T01:46:02;8.48;;;4.88;;
42988;SDS011;28622;43.716;20.668;2023-04-06T01:48:28;7.82;;;4.32;;
42988;SDS011;28622;43.716;20.668;2023-04-06T01:50:54;11.52;;;5.25;;
42988;SDS011;28622;43.716;20.668;2023-04-06T01:53:20;12.23;;;5.57;;
42988;SDS011;28622;43.716;20.668;2023-04-06T01:55:46;6.90;;;4.53;;
42988;SDS011;28622;43.716;20.668;2023-04-06T01:58:12;11.80;;;5.38;;
42988;SDS011;28622;43.716;20.668;2023-04-06T02:00:38;15.82;;;7.47;;
42988;SDS011;28622;43.716;20.668;2023-04-06T02:03:04;14.63;;;6.93;;
42988;SDS011;28622;43.716;20.668;2023-04-06T02:05:31;11.55;;;5.85;;
42988;SDS011;28622;43.716;20.668;2023-04-06T02:08:03;7.90;;;3.42;;
42988;SDS011;28622;43.716;20.668;2023-04-06T02:10:32;9.90;;;4.75;;
42988;SDS011;28622;43.716;20.668;2023-04-06T02:12:59;7.65;;;3.78;;
42988;SDS011;28622;43.716;20.668;2023-04-06T02:15:25;11.48;;;5.45;;
42988;SDS011;28622;43.716;20.668;2023-04-06T02:17:52;8.30;;;4.80;;
42988;SDS011;28622;43.716;20.668;2023-04-06T02:20:18;7.13;;;4.05;;
42988;SDS011;28622;43.716;20.668;2023-04-06T02:22:44;7.93;;;3.55;;
42988;SDS011;28622;43.716;20.668;2023-04-06T02:25:10;9.25;;;4.47;;
42988;SDS011;28622;43.716;20.668;2023-04-06T02:27:36;8.68;;;3.92;;
42988;SDS011;28622;43.716;20.668;2023-04-06T02:30:03;8.10;;;4.25;;
42988;SDS011;28622;43.716;20.668;2023-04-06T02:32:29;7.20;;;3.80;;
42988;SDS011;28622;43.716;20.668;2023-04-06T02:34:55;7.20;;;3.63;;
42988;SDS011;28622;43.716;20.668;2023-04-06T02:37:21;4.78;;;3.33;;
42988;SDS011;28622;43.716;20.668;2023-04-06T02:39:48;9.45;;;4.57;;
42988;SDS011;28622;43.716;20.668;2023-04-06T02:42:14;6.80;;;3.95;;
42988;SDS011;28622;43.716;20.668;2023-04-06T02:44:40;5.80;;;3.20;;
42988;SDS011;28622;43.716;20.668;2023-04-06T02:47:07;11.18;;;4.03;;
42988;SDS011;28622;43.716;20.668;2023-04-06T02:49:33;10.82;;;5.00;;
42988;SDS011;28622;43.716;20.668;2023-04-06T02:51:59;7.47;;;4.07;;
42988;SDS011;28622;43.716;20.668;2023-04-06T02:54:25;6.95;;;3.95;;
42988;SDS011;28622;43.716;20.668;2023-04-06T02:56:51;8.07;;;4.68;;
42988;SDS011;28622;43.716;20.668;2023-04-06T02:59:17;7.78;;;4.30;;
42988;SDS011;28622;43.716;20.668;2023-04-06T03:01:42;10.48;;;4.30;;
42988;SDS011;28622;43.716;20.668;2023-04-06T03:04:08;8.85;;;4.65;;
42988;SDS011;28622;43.716;20.668;2023-04-06T03:06:34;8.30;;;4.10;;
42988;SDS011;28622;43.716;20.668;2023-04-06T03:09:00;4.82;;;3.10;;
42988;SDS011;28622;43.716;20.668;2023-04-06T03:11:25;7.15;;;4.63;;
42988;SDS011;28622;43.716;20.668;2023-04-06T03:13:51;5.07;;;3.25;;
42988;SDS011;28622;43.716;20.668;2023-04-06T03:16:17;6.30;;;3.30;;
42988;SDS011;28622;43.716;20.668;2023-04-06T03:18:43;7.47;;;3.35;;
42988;SDS011;28622;43.716;20.668;2023-04-06T03:21:10;10.30;;;4.97;;
42988;SDS011;28622;43.716;20.668;2023-04-06T03:23:36;5.57;;;4.07;;
42988;SDS011;28622;43.716;20.668;2023-04-06T03:26:02;7.63;;;3.45;;
42988;SDS011;28622;43.716;20.668;2023-04-06T03:28:28;4.95;;;2.85;;
42988;SDS011;28622;43.716;20.668;2023-04-06T03:30:54;10.57;;;4.78;;
42988;SDS011;28622;43.716;20.668;2023-04-06T03:33:20;8.93;;;4.85;;
42988;SDS011;28622;43.716;20.668;2023-04-06T03:35:46;6.80;;;3.75;;
42988;SDS011;28622;43.716;20.668;2023-04-06T03:38:11;6.03;;;3.33;;
42988;SDS011;28622;43.716;20.668;2023-04-06T03:40:37;6.82;;;3.92;;
42988;SDS011;28622;43.716;20.668;2023-04-06T03:43:03;7.15;;;4.20;;
42988;SDS011;28622;43.716;20.668;2023-04-06T03:45:29;12.52;;;6.13;;
42988;SDS011;28622;43.716;20.668;2023-04-06T03:47:55;11.90;;;5.78;;
42988;SDS011;28622;43.716;20.668;2023-04-06T03:50:21;12.27;;;5.40;;
42988;SDS011;28622;43.716;20.668;2023-04-06T03:52:47;9.70;;;4.82;;
42988;SDS011;28622;43.716;20.668;2023-04-06T03:55:12;5.47;;;3.38;;
42988;SDS011;28622;43.716;20.668;2023-04-06T03:57:38;9.18;;;4.70;;
42988;SDS011;28622;43.716;20.668;2023-04-06T04:00:04;14.82;;;6.00;;
42988;SDS011;28622;43.716;20.668;2023-04-06T04:02:31;20.08;;;8.85;;
42988;SDS011;28622;43.716;20.668;2023-04-06T04:04:56;22.25;;;10.38;;
42988;SDS011;28622;43.716;20.668;2023-04-06T04:07:22;20.58;;;8.73;;
42988;SDS011;28622;43.716;20.668;2023-04-06T04:09:48;21.33;;;8.45;;
42988;SDS011;28622;43.716;20.668;2023-04-06T04:12:13;22.13;;;9.15;;
42988;SDS011;28622;43.716;20.668;2023-04-06T04:14:41;12.43;;;6.70;;
42988;SDS011;28622;43.716;20.668;2023-04-06T04:17:08;17.73;;;7.43;;
42988;SDS011;28622;43.716;20.668;2023-04-06T04:19:34;15.93;;;6.68;;
42988;SDS011;28622;43.716;20.668;2023-04-06T04:22:00;14.77;;;6.50;;
42988;SDS011;28622;43.716;20.668;2023-04-06T04:24:29;12.55;;;5.53;;
42988;SDS011;28622;43.716;20.668;2023-04-06T04:26:55;11.88;;;5.13;;
42988;SDS011;28622;43.716;20.668;2023-04-06T04:29:21;7.35;;;4.13;;
42988;SDS011;28622;43.716;20.668;2023-04-06T04:31:48;9.88;;;3.55;;
42988;SDS011;28622;43.716;20.668;2023-04-06T04:34:14;8.70;;;4.40;;
42988;SDS011;28622;43.716;20.668;2023-04-06T04:36:40;14.63;;;5.88;;
42988;SDS011;28622;43.716;20.668;2023-04-06T04:39:10;24.73;;;9.55;;
42988;SDS011;28622;43.716;20.668;2023-04-06T04:41:35;14.00;;;6.10;;
42988;SDS011;28622;43.716;20.668;2023-04-06T04:44:01;9.60;;;4.55;;
42988;SDS011;28622;43.716;20.668;2023-04-06T04:46:27;12.63;;;5.95;;
42988;SDS011;28622;43.716;20.668;2023-04-06T04:48:53;10.10;;;5.20;;
42988;SDS011;28622;43.716;20.668;2023-04-06T04:51:19;12.70;;;7.18;;
42988;SDS011;28622;43.716;20.668;2023-04-06T04:53:45;13.38;;;6.93;;
42988;SDS011;28622;43.716;20.668;2023-04-06T04:56:10;19.33;;;7.97;;
42988;SDS011;28622;43.716;20.668;2023-04-06T04:58:36;20.73;;;9.77;;
42988;SDS011;28622;43.716;20.668;2023-04-06T05:01:02;21.77;;;10.10;;
42988;SDS011;28622;43.716;20.668;2023-04-06T05:03:28;25.95;;;11.32;;
42988;SDS011;28622;43.716;20.668;2023-04-06T05:05:54;33.78;;;13.60;;
42988;SDS011;28622;43.716;20.668;2023-04-06T05:08:20;24.00;;;10.65;;
42988;SDS011;28622;43.716;20.668;2023-04-06T05:10:46;24.73;;;11.77;;
42988;SDS011;28622;43.716;20.668;2023-04-06T05:13:13;16.83;;;8.63;;
42988;SDS011;28622;43.716;20.668;2023-04-06T05:15:39;25.80;;;13.75;;
42988;SDS011;28622;43.716;20.668;2023-04-06T05:18:06;21.63;;;10.25;;
42988;SDS011;28622;43.716;20.668;2023-04-06T05:20:32;17.33;;;6.97;;
42988;SDS011;28622;43.716;20.668;2023-04-06T05:22:58;12.13;;;5.97;;
42988;SDS011;28622;43.716;20.668;2023-04-06T05:25:24;16.52;;;8.80;;
42988;SDS011;28622;43.716;20.668;2023-04-06T05:27:50;13.27;;;8.35;;
42988;SDS011;28622;43.716;20.668;2023-04-06T05:30:16;13.35;;;7.82;;
42988;SDS011;28622;43.716;20.668;2023-04-06T05:32:42;12.77;;;7.03;;
42988;SDS011;28622;43.716;20.668;2023-04-06T05:35:10;9.63;;;5.63;;
42988;SDS011;28622;43.716;20.668;2023-04-06T05:37:37;14.13;;;7.03;;
42988;SDS011;28622;43.716;20.668;2023-04-06T05:40:03;9.68;;;5.63;;
42988;SDS011;28622;43.716;20.668;2023-04-06T05:42:36;14.68;;;7.40;;
42988;SDS011;28622;43.716;20.668;2023-04-06T05:45:06;16.13;;;9.13;;
42988;SDS011;28622;43.716;20.668;2023-04-06T05:47:32;18.42;;;8.40;;
42988;SDS011;28622;43.716;20.668;2023-04-06T05:49:58;20.27;;;9.10;;
42988;SDS011;28622;43.716;20.668;2023-04-06T05:52:24;17.20;;;8.30;;
42988;SDS011;28622;43.716;20.668;2023-04-06T05:54:50;20.65;;;9.45;;
42988;SDS011;28622;43.716;20.668;2023-04-06T05:57:16;18.48;;;9.43;;
42988;SDS011;28622;43.716;20.668;2023-04-06T05:59:43;16.98;;;8.32;;
42988;SDS011;28622;43.716;20.668;2023-04-06T06:02:09;16.98;;;6.57;;
42988;SDS011;28622;43.716;20.668;2023-04-06T06:04:34;11.80;;;6.70;;
42988;SDS011;28622;43.716;20.668;2023-04-06T06:07:00;14.57;;;6.97;;
42988;SDS011;28622;43.716;20.668;2023-04-06T06:09:26;15.13;;;5.88;;
42988;SDS011;28622;43.716;20.668;2023-04-06T06:11:52;13.07;;;6.97;;
42988;SDS011;28622;43.716;20.668;2023-04-06T06:14:19;10.05;;;5.85;;
42988;SDS011;28622;43.716;20.668;2023-04-06T06:16:45;13.70;;;6.75;;
42988;SDS011;28622;43.716;20.668;2023-04-06T06:19:11;13.07;;;7.63;;
42988;SDS011;28622;43.716;20.668;2023-04-06T06:21:36;10.75;;;5.65;;
42988;SDS011;28622;43.716;20.668;2023-04-06T06:24:02;15.45;;;8.20;;
42988;SDS011;28622;43.716;20.668;2023-04-06T06:26:28;12.35;;;7.00;;
42988;SDS011;28622;43.716;20.668;2023-04-06T06:28:54;12.27;;;5.90;;
42988;SDS011;28622;43.716;20.668;2023-04-06T06:31:20;9.98;;;5.93;;
42988;SDS011;28622;43.716;20.668;2023-04-06T06:33:47;15.23;;;7.28;;
42988;SDS011;28622;43.716;20.668;2023-04-06T06:36:17;14.30;;;7.68;;
42988;SDS011;28622;43.716;20.668;2023-04-06T06:38:43;15.15;;;8.23;;
42988;SDS011;28622;43.716;20.668;2023-04-06T06:41:10;5.97;;;3.83;;
42988;SDS011;28622;43.716;20.668;2023-04-06T06:43:36;8.40;;;3.92;;
42988;SDS011;28622;43.716;20.668;2023-04-06T06:46:02;6.03;;;3.35;;
42988;SDS011;28622;43.716;20.668;2023-04-06T06:48:28;8.57;;;5.18;;
42988;SDS011;28622;43.716;20.668;2023-04-06T06:50:54;6.88;;;3.67;;
42988;SDS011;28622;43.716;20.668;2023-04-06T06:53:20;7.13;;;3.83;;
42988;SDS011;28622;43.716;20.668;2023-04-06T06:55:46;7.00;;;3.30;;
42988;SDS011;28622;43.716;20.668;2023-04-06T06:58:14;6.30;;;3.47;;
42988;SDS011;28622;43.716;20.668;2023-04-06T07:00:40;7.57;;;3.75;;
42988;SDS011;28622;43.716;20.668;2023-04-06T07:03:06;4.97;;;3.47;;
42988;SDS011;28622;43.716;20.668;2023-04-06T07:05:31;40.80;;;20.52;;
42988;SDS011;28622;43.716;20.668;2023-04-06T07:07:57;14.85;;;7.50;;
42988;SDS011;28622;43.716;20.668;2023-04-06T07:10:23;8.07;;;4.68;;
42988;SDS011;28622;43.716;20.668;2023-04-06T07:12:49;6.00;;;4.18;;
42988;SDS011;28622;43.716;20.668;2023-04-06T07:15:16;6.10;;;3.55;;
42988;SDS011;28622;43.716;20.668;2023-04-06T07:17:42;5.45;;;3.00;;
42988;SDS011;28622;43.716;20.668;2023-04-06T07:20:10;5.05;;;3.10;;
42988;SDS011;28622;43.716;20.668;2023-04-06T07:22:37;12.85;;;5.57;;
42988;SDS011;28622;43.716;20.668;2023-04-06T07:25:03;11.25;;;5.13;;
42988;SDS011;28622;43.716;20.668;2023-04-06T07:27:30;24.15;;;13.52;;
42988;SDS011;28622;43.716;20.668;2023-04-06T07:29:55;10.23;;;6.10;;
42988;SDS011;28622;43.716;20.668;2023-04-06T07:32:21;6.75;;;4.28;;
42988;SDS011;28622;43.716;20.668;2023-04-06T07:34:47;6.53;;;3.45;;
42988;SDS011;28622;43.716;20.668;2023-04-06T07:37:13;4.90;;;2.90;;
42988;SDS011;28622;43.716;20.668;2023-04-06T07:39:38;4.85;;;3.33;;
42988;SDS011;28622;43.716;20.668;2023-04-06T07:42:05;5.75;;;3.90;;
42988;SDS011;28622;43.716;20.668;2023-04-06T07:44:31;3.50;;;2.85;;
42988;SDS011;28622;43.716;20.668;2023-04-06T07:46:57;7.05;;;3.03;;
42988;SDS011;28622;43.716;20.668;2023-04-06T07:49:22;9.05;;;4.15;;
42988;SDS011;28622;43.716;20.668;2023-04-06T07:51:48;8.27;;;3.72;;
42988;SDS011;28622;43.716;20.668;2023-04-06T07:54:14;5.95;;;3.10;;
42988;SDS011;28622;43.716;20.668;2023-04-06T07:56:40;7.35;;;4.25;;
42988;SDS011;28622;43.716;20.668;2023-04-06T07:59:06;6.72;;;3.75;;
42988;SDS011;28622;43.716;20.668;2023-04-06T08:01:31;4.82;;;3.28;;
42988;SDS011;28622;43.716;20.668;2023-04-06T08:03:57;5.10;;;3.30;;
42988;SDS011;28622;43.716;20.668;2023-04-06T08:06:24;5.82;;;3.13;;
42988;SDS011;28622;43.716;20.668;2023-04-06T08:08:50;4.40;;;3.03;;
42988;SDS011;28622;43.716;20.668;2023-04-06T08:11:15;5.07;;;3.20;;
42988;SDS011;28622;43.716;20.668;2023-04-06T08:13:41;6.10;;;3.17;;
42988;SDS011;28622;43.716;20.668;2023-04-06T08:16:07;10.75;;;2.83;;
42988;SDS011;28622;43.716;20.668;2023-04-06T08:18:33;6.50;;;3.38;;
42988;SDS011;28622;43.716;20.668;2023-04-06T08:20:59;7.07;;;3.67;;
42988;SDS011;28622;43.716;20.668;2023-04-06T08:23:25;5.93;;;3.28;;
42988;SDS011;28622;43.716;20.668;2023-04-06T08:25:50;6.00;;;3.60;;
42988;SDS011;28622;43.716;20.668;2023-04-06T08:28:19;8.73;;;4.80;;
42988;SDS011;28622;43.716;20.668;2023-04-06T08:30:46;9.48;;;3.45;;
42988;SDS011;28622;43.716;20.668;2023-04-06T08:33:11;8.95;;;5.03;;
42988;SDS011;28622;43.716;20.668;2023-04-06T08:35:37;17.98;;;7.85;;
42988;SDS011;28622;43.716;20.668;2023-04-06T08:38:03;5.93;;;3.80;;
42988;SDS011;28622;43.716;20.668;2023-04-06T08:40:29;15.15;;;5.55;;
42988;SDS011;28622;43.716;20.668;2023-04-06T08:42:56;9.70;;;4.45;;
42988;SDS011;28622;43.716;20.668;2023-04-06T08:45:24;12.02;;;5.97;;
42988;SDS011;28622;43.716;20.668;2023-04-06T08:47:50;9.18;;;4.22;;
42988;SDS011;28622;43.716;20.668;2023-04-06T08:50:19;6.85;;;4.00;;
42988;SDS011;28622;43.716;20.668;2023-04-06T08:52:46;6.43;;;3.63;;
42988;SDS011;28622;43.716;20.668;2023-04-06T08:55:13;5.93;;;3.38;;
42988;SDS011;28622;43.716;20.668;2023-04-06T08:57:40;9.35;;;4.80;;
42988;SDS011;28622;43.716;20.668;2023-04-06T09:00:07;7.13;;;3.63;;
42988;SDS011;28622;43.716;20.668;2023-04-06T09:02:38;10.25;;;4.82;;
42988;SDS011;28622;43.716;20.668;2023-04-06T09:05:06;8.43;;;3.97;;
42988;SDS011;28622;43.716;20.668;2023-04-06T09:07:34;11.38;;;5.97;;
42988;SDS011;28622;43.716;20.668;2023-04-06T09:10:01;6.82;;;3.88;;
42988;SDS011;28622;43.716;20.668;2023-04-06T09:12:27;6.32;;;4.30;;
42988;SDS011;28622;43.716;20.668;2023-04-06T09:14:54;6.70;;;3.95;;
42988;SDS011;28622;43.716;20.668;2023-04-06T09:17:26;9.88;;;4.43;;
42988;SDS011;28622;43.716;20.668;2023-04-06T09:19:57;5.82;;;3.30;;
42988;SDS011;28622;43.716;20.668;2023-04-06T09:22:24;5.93;;;3.67;;
42988;SDS011;28622;43.716;20.668;2023-04-06T09:24:52;8.75;;;4.03;;
42988;SDS011;28622;43.716;20.668;2023-04-06T09:27:37;4.07;;;2.63;;
42988;SDS011;28622;43.716;20.668;2023-04-06T09:30:07;12.20;;;3.97;;
42988;SDS011;28622;43.716;20.668;2023-04-06T09:35:29;3.83;;;2.65;;
42988;SDS011;28622;43.716;20.668;2023-04-06T09:37:57;6.28;;;3.08;;
42988;SDS011;28622;43.716;20.668;2023-04-06T09:40:23;8.77;;;4.38;;
42988;SDS011;28622;43.716;20.668;2023-04-06T09:42:49;8.30;;;3.80;;
42988;SDS011;28622;43.716;20.668;2023-04-06T09:45:17;6.40;;;3.33;;
42988;SDS011;28622;43.716;20.668;2023-04-06T09:47:43;10.55;;;4.82;;
42988;SDS011;28622;43.716;20.668;2023-04-06T09:50:11;8.00;;;3.83;;
42988;SDS011;28622;43.716;20.668;2023-04-06T09:52:42;5.85;;;3.08;;
42988;SDS011;28622;43.716;20.668;2023-04-06T09:55:40;12.75;;;4.40;;
42988;SDS011;28622;43.716;20.668;2023-04-06T09:58:16;6.32;;;3.63;;
42988;SDS011;28622;43.716;20.668;2023-04-06T10:00:53;6.03;;;3.17;;
42988;SDS011;28622;43.716;20.668;2023-04-06T10:03:40;6.95;;;3.08;;
42988;SDS011;28622;43.716;20.668;2023-04-06T10:06:16;5.30;;;3.45;;
42988;SDS011;28622;43.716;20.668;2023-04-06T10:08:47;8.48;;;3.85;;
42988;SDS011;28622;43.716;20.668;2023-04-06T10:11:15;4.60;;;3.25;;
42988;SDS011;28622;43.716;20.668;2023-04-06T10:13:41;4.25;;;2.58;;
42988;SDS011;28622;43.716;20.668;2023-04-06T10:16:08;7.50;;;3.20;;
42988;SDS011;28622;43.716;20.668;2023-04-06T10:18:34;7.55;;;3.83;;
42988;SDS011;28622;43.716;20.668;2023-04-06T10:21:04;8.40;;;4.38;;
42988;SDS011;28622;43.716;20.668;2023-04-06T10:23:35;8.70;;;4.80;;
42988;SDS011;28622;43.716;20.668;2023-04-06T10:26:04;8.45;;;4.53;;
42988;SDS011;28622;43.716;20.668;2023-04-06T10:28:31;8.20;;;3.38;;
42988;SDS011;28622;43.716;20.668;2023-04-06T10:31:01;6.65;;;3.53;;
42988;SDS011;28622;43.716;20.668;2023-04-06T10:33:30;18.40;;;8.35;;
42988;SDS011;28622;43.716;20.668;2023-04-06T10:35:56;7.97;;;3.90;;
42988;SDS011;28622;43.716;20.668;2023-04-06T10:38:43;4.70;;;2.72;;
42988;SDS011;28622;43.716;20.668;2023-04-06T10:41:08;7.65;;;4.32;;
42988;SDS011;28622;43.716;20.668;2023-04-06T10:43:36;6.90;;;3.53;;
42988;SDS011;28622;43.716;20.668;2023-04-06T10:46:04;5.53;;;2.88;;
42988;SDS011;28622;43.716;20.668;2023-04-06T10:48:38;6.55;;;2.95;;
42988;SDS011;28622;43.716;20.668;2023-04-06T10:51:09;7.53;;;4.40;;
42988;SDS011;28622;43.716;20.668;2023-04-06T10:53:43;6.47;;;3.17;;
42988;SDS011;28622;43.716;20.668;2023-04-06T10:56:11;5.90;;;3.42;;
42988;SDS011;28622;43.716;20.668;2023-04-06T10:58:43;5.45;;;2.78;;
42988;SDS011;28622;43.716;20.668;2023-04-06T11:01:14;5.28;;;3.28;;
42988;SDS011;28622;43.716;20.668;2023-04-06T11:03:44;5.20;;;2.95;;
42988;SDS011;28622;43.716;20.668;2023-04-06T11:06:18;4.72;;;2.67;;
42988;SDS011;28622;43.716;20.668;2023-04-06T11:08:44;4.70;;;2.65;;
42988;SDS011;28622;43.716;20.668;2023-04-06T11:11:11;4.43;;;2.08;;
42988;SDS011;28622;43.716;20.668;2023-04-06T11:13:47;11.95;;;4.97;;
42988;SDS011;28622;43.716;20.668;2023-04-06T11:16:27;10.57;;;3.80;;
42988;SDS011;28622;43.716;20.668;2023-04-06T11:18:57;7.80;;;3.20;;
42988;SDS011;28622;43.716;20.668;2023-04-06T11:24:08;6.80;;;2.67;;
42988;SDS011;28622;43.716;20.668;2023-04-06T11:26:42;8.63;;;2.88;;
42988;SDS011;28622;43.716;20.668;2023-04-06T11:29:10;5.95;;;3.10;;
42988;SDS011;28622;43.716;20.668;2023-04-06T11:31:47;7.35;;;3.08;;
42988;SDS011;28622;43.716;20.668;2023-04-06T11:34:18;5.40;;;2.85;;
42988;SDS011;28622;43.716;20.668;2023-04-06T11:36:46;5.00;;;2.75;;
42988;SDS011;28622;43.716;20.668;2023-04-06T11:39:13;3.72;;;2.22;;
42988;SDS011;28622;43.716;20.668;2023-04-06T11:41:53;5.18;;;2.80;;
42988;SDS011;28622;43.716;20.668;2023-04-06T11:47:09;7.88;;;3.88;;
42988;SDS011;28622;43.716;20.668;2023-04-06T11:49:39;6.65;;;3.08;;
42988;SDS011;28622;43.716;20.668;2023-04-06T11:52:15;6.88;;;2.97;;
42988;SDS011;28622;43.716;20.668;2023-04-06T11:54:41;5.57;;;2.55;;
42988;SDS011;28622;43.716;20.668;2023-04-06T11:57:07;4.32;;;2.72;;
42988;SDS011;28622;43.716;20.668;2023-04-06T11:59:34;4.68;;;2.42;;
42988;SDS011;28622;43.716;20.668;2023-04-06T12:02:03;6.20;;;2.70;;
42988;SDS011;28622;43.716;20.668;2023-04-06T12:04:29;4.68;;;2.63;;
42988;SDS011;28622;43.716;20.668;2023-04-06T12:06:56;2.83;;;2.00;;
42988;SDS011;28622;43.716;20.668;2023-04-06T12:09:22;7.25;;;3.60;;
42988;SDS011;28622;43.716;20.668;2023-04-06T12:11:48;5.18;;;2.88;;
42988;SDS011;28622;43.716;20.668;2023-04-06T12:14:14;6.63;;;3.47;;
42988;SDS011;28622;43.716;20.668;2023-04-06T12:16:40;8.27;;;3.60;;
42988;SDS011;28622;43.716;20.668;2023-04-06T12:19:06;11.35;;;4.82;;
42988;SDS011;28622;43.716;20.668;2023-04-06T12:21:33;10.20;;;3.72;;
42988;SDS011;28622;43.716;20.668;2023-04-06T12:24:01;6.97;;;3.42;;
42988;SDS011;28622;43.716;20.668;2023-04-06T12:26:27;8.68;;;3.65;;
42988;SDS011;28622;43.716;20.668;2023-04-06T12:28:54;6.50;;;3.10;;
42988;SDS011;28622;43.716;20.668;2023-04-06T12:31:20;5.53;;;3.13;;
42988;SDS011;28622;43.716;20.668;2023-04-06T12:33:48;6.57;;;2.47;;
42988;SDS011;28622;43.716;20.668;2023-04-06T12:36:15;4.03;;;2.60;;
42988;SDS011;28622;43.716;20.668;2023-04-06T12:38:49;6.30;;;3.47;;
42988;SDS011;28622;43.716;20.668;2023-04-06T12:41:16;5.25;;;2.50;;
42988;SDS011;28622;43.716;20.668;2023-04-06T12:43:42;4.68;;;2.47;;
42988;SDS011;28622;43.716;20.668;2023-04-06T12:46:10;4.47;;;2.25;;
42988;SDS011;28622;43.716;20.668;2023-04-06T12:48:37;3.92;;;2.17;;
42988;SDS011;28622;43.716;20.668;2023-04-06T12:51:06;12.65;;;4.35;;
42988;SDS011;28622;43.716;20.668;2023-04-06T12:53:32;7.57;;;2.58;;
42988;SDS011;28622;43.716;20.668;2023-04-06T12:55:59;6.65;;;2.65;;
42988;SDS011;28622;43.716;20.668;2023-04-06T12:58:26;11.10;;;4.78;;
42988;SDS011;28622;43.716;20.668;2023-04-06T13:00:53;10.63;;;5.15;;
42988;SDS011;28622;43.716;20.668;2023-04-06T13:03:20;6.57;;;3.30;;
42988;SDS011;28622;43.716;20.668;2023-04-06T13:05:47;5.60;;;2.78;;
42988;SDS011;28622;43.716;20.668;2023-04-06T13:08:14;8.38;;;2.88;;
42988;SDS011;28622;43.716;20.668;2023-04-06T13:10:43;9.70;;;3.25;;
42988;SDS011;28622;43.716;20.668;2023-04-06T13:13:13;5.05;;;2.92;;
42988;SDS011;28622;43.716;20.668;2023-04-06T13:15:42;6.05;;;2.70;;
42988;SDS011;28622;43.716;20.668;2023-04-06T13:18:10;7.13;;;2.55;;
42988;SDS011;28622;43.716;20.668;2023-04-06T13:20:36;8.55;;;3.88;;
42988;SDS011;28622;43.716;20.668;2023-04-06T13:23:02;15.38;;;5.70;;
42988;SDS011;28622;43.716;20.668;2023-04-06T13:25:28;12.57;;;6.15;;
42988;SDS011;28622;43.716;20.668;2023-04-06T13:27:54;6.50;;;3.72;;
42988;SDS011;28622;43.716;20.668;2023-04-06T13:30:20;6.10;;;3.60;;
42988;SDS011;28622;43.716;20.668;2023-04-06T13:32:46;9.73;;;2.90;;
42988;SDS011;28622;43.716;20.668;2023-04-06T13:35:12;6.55;;;3.53;;
42988;SDS011;28622;43.716;20.668;2023-04-06T13:37:38;5.88;;;3.05;;
42988;SDS011;28622;43.716;20.668;2023-04-06T13:40:04;4.38;;;2.72;;
42988;SDS011;28622;43.716;20.668;2023-04-06T13:42:31;6.25;;;3.08;;
42988;SDS011;28622;43.716;20.668;2023-04-06T13:44:57;8.15;;;3.63;;
42988;SDS011;28622;43.716;20.668;2023-04-06T13:47:24;12.65;;;3.63;;
42988;SDS011;28622;43.716;20.668;2023-04-06T13:49:50;9.05;;;2.90;;
42988;SDS011;28622;43.716;20.668;2023-04-06T13:52:20;11.30;;;5.38;;
42988;SDS011;28622;43.716;20.668;2023-04-06T13:54:46;9.70;;;4.25;;
42988;SDS011;28622;43.716;20.668;2023-04-06T13:57:12;8.57;;;3.80;;
42988;SDS011;28622;43.716;20.668;2023-04-06T13:59:38;10.30;;;5.20;;
42988;SDS011;28622;43.716;20.668;2023-04-06T14:02:06;7.55;;;4.70;;
42988;SDS011;28622;43.716;20.668;2023-04-06T14:04:33;9.68;;;4.45;;
42988;SDS011;28622;43.716;20.668;2023-04-06T14:07:00;5.50;;;3.28;;
42988;SDS011;28622;43.716;20.668;2023-04-06T14:09:27;4.85;;;2.85;;
42988;SDS011;28622;43.716;20.668;2023-04-06T14:11:53;5.10;;;3.13;;
42988;SDS011;28622;43.716;20.668;2023-04-06T14:14:19;5.75;;;3.75;;
42988;SDS011;28622;43.716;20.668;2023-04-06T14:16:45;7.15;;;3.45;;
42988;SDS011;28622;43.716;20.668;2023-04-06T14:19:12;4.55;;;2.33;;
42988;SDS011;28622;43.716;20.668;2023-04-06T14:21:41;5.78;;;2.92;;
42988;SDS011;28622;43.716;20.668;2023-04-06T14:24:08;7.70;;;4.13;;
42988;SDS011;28622;43.716;20.668;2023-04-06T14:26:35;8.38;;;5.38;;
42988;SDS011;28622;43.716;20.668;2023-04-06T14:29:01;6.25;;;3.10;;
42988;SDS011;28622;43.716;20.668;2023-04-06T14:31:28;4.43;;;2.67;;
42988;SDS011;28622;43.716;20.668;2023-04-06T14:33:53;5.15;;;2.38;;
42988;SDS011;28622;43.716;20.668;2023-04-06T14:36:19;3.88;;;2.65;;